Time;durP1;ratioP1;P1;durP2;ratioP2;P2;SDS_P1;SDS_P2;PMS_P1;PMS_P2;Temp;Humidity;BMP_temperature;BMP_pressure;BME280_temperature;BME280_humidity;BME280_pressure;Samples;Min_cycle;Max_cycle;Signal;HPM_P1;HPM_P2
2023/01/31 00:01:31;;;;;;;0.00;0.00;;;;;;;3.37;100.00;101580.19;4917262;29;20055;-77
2023/01/31 00:04:00;;;;;;;0.00;0.00;;;;;;;3.28;100.00;101564.06;4912427;29;20031;-76
2023/01/31 00:06:29;;;;;;;0.00;0.00;;;;;;;3.32;100.00;101569.94;4898476;29;20025;-77
2023/01/31 00:08:55;;;;;;;0.00;0.00;;;;;;;3.21;100.00;101555.03;4899402;29;20118;-77
2023/01/31 00:11:23;;;;;;;0.00;0.00;;;;;;;3.22;100.00;101556.72;4914159;29;20470;-78
2023/01/31 00:13:49;;;;;;;0.00;0.00;;;;;;;3.20;100.00;101577.69;4908948;29;20705;-77
2023/01/31 00:16:16;;;;;;;0.00;0.00;;;;;;;3.16;100.00;101581.81;4912245;29;20128;-77
2023/01/31 00:18:42;;;;;;;0.00;0.00;;;;;;;3.11;100.00;101559.88;4905387;29;20024;-76
2023/01/31 00:21:19;;;;;;;0.00;0.00;;;;;;;3.14;100.00;101554.13;4876561;29;20032;-76
2023/01/31 00:23:46;;;;;;;0.00;0.00;;;;;;;3.11;100.00;101546.38;4902000;29;20036;-77
2023/01/31 00:26:20;;;;;;;0.00;0.00;;;;;;;3.07;100.00;101542.41;4890041;29;20439;-79
2023/01/31 00:28:50;;;;;;;0.00;0.00;;;;;;;3.11;100.00;101535.56;4908348;29;20024;-77
2023/01/31 00:31:16;;;;;;;0.00;0.00;;;;;;;3.16;100.00;101538.56;4899030;29;20077;-77
2023/01/31 00:33:43;;;;;;;0.00;0.00;;;;;;;3.28;100.00;101533.50;4905954;29;20083;-77
2023/01/31 00:36:12;;;;;;;0.00;0.00;;;;;;;3.29;100.00;101536.00;4914495;29;20177;-77
2023/01/31 00:38:37;;;;;;;0.00;0.00;;;;;;;3.26;100.00;101536.38;4913127;29;20044;-77
2023/01/31 00:41:04;;;;;;;0.00;0.00;;;;;;;3.25;100.00;101534.69;4905660;29;20020;-77
2023/01/31 00:43:31;;;;;;;0.00;0.00;;;;;;;3.25;100.00;101533.88;4912932;29;20027;-76
2023/01/31 00:45:57;;;;;;;0.00;0.00;;;;;;;3.28;100.00;101531.63;4901499;29;20039;-76
2023/01/31 00:48:23;;;;;;;0.00;0.00;;;;;;;3.30;100.00;101516.06;4889061;29;20039;-76
2023/01/31 00:50:48;;;;;;;0.00;0.00;;;;;;;3.41;100.00;101530.09;4896102;29;20040;-77
2023/01/31 00:53:14;;;;;;;0.00;0.00;;;;;;;3.39;100.00;101529.44;4891321;29;20383;-77
2023/01/31 00:55:40;;;;;;;0.00;0.00;;;;;;;3.37;100.00;101509.88;4906196;29;20121;-77
2023/01/31 00:58:05;;;;;;;0.00;0.00;;;;;;;3.36;100.00;101503.66;4898010;29;20024;-77
2023/01/31 01:00:31;;;;;;;0.00;0.00;;;;;;;3.41;100.00;101505.75;4900152;29;20092;-76
2023/01/31 01:02:56;;;;;;;0.00;0.00;;;;;;;3.52;100.00;101513.38;4895072;29;20024;-76
2023/01/31 01:05:22;;;;;;;0.00;0.00;;;;;;;3.31;100.00;101479.03;4903716;29;20032;-76
2023/01/31 01:07:47;;;;;;;0.00;0.00;;;;;;;3.44;100.00;101489.97;4902123;29;20044;-76
2023/01/31 01:10:12;;;;;;;0.00;0.00;;;;;;;3.43;100.00;101495.56;4864405;29;20510;-76
2023/01/31 01:12:38;;;;;;;0.00;0.00;;;;;;;3.45;100.00;101518.69;4882342;29;20060;-76
2023/01/31 01:15:04;;;;;;;0.00;0.00;;;;;;;3.36;100.00;101502.78;4906165;29;20396;-76
2023/01/31 01:17:30;;;;;;;0.00;0.00;;;;;;;3.30;100.00;101490.88;4876345;29;20040;-76
2023/01/31 01:19:55;;;;;;;0.00;0.00;;;;;;;3.42;100.00;101505.56;4893664;29;20017;-75
2023/01/31 01:22:20;;;;;;;0.00;0.00;;;;;;;3.47;100.00;101515.81;4883904;29;20032;-75
2023/01/31 01:24:46;;;;;;;0.00;0.00;;;;;;;3.41;100.00;101511.16;4906673;29;20039;-75
2023/01/31 01:27:12;;;;;;;0.00;0.00;;;;;;;3.45;100.00;101529.53;4878595;29;20564;-76
2023/01/31 01:29:38;;;;;;;0.00;0.00;;;;;;;3.39;100.00;101513.22;4900469;29;20051;-74
2023/01/31 01:32:05;;;;;;;0.00;0.00;;;;;;;3.33;100.00;101520.25;4896649;29;20031;-76
2023/01/31 01:34:31;;;;;;;0.00;0.00;;;;;;;3.20;100.00;101509.25;4909928;29;20079;-75
2023/01/31 01:37:04;;;;;;;0.00;0.00;;;;;;;3.05;100.00;101501.19;4880797;29;20528;-74
2023/01/31 01:39:29;;;;;;;0.00;0.00;;;;;;;2.85;100.00;101488.28;4875470;29;20082;-74
2023/01/31 01:41:55;;;;;;;0.00;0.00;;;;;;;2.86;100.00;101508.88;4866077;29;20028;-74
2023/01/31 01:44:52;;;;;;;0.00;0.00;;;;;;;2.77;100.00;101507.28;4896004;29;20043;-74
2023/01/31 01:47:39;;;;;;;0.00;0.00;;;;;;;2.66;100.00;101499.66;4896991;29;20040;-74
2023/01/31 01:50:21;;;;;;;0.00;0.00;;;;;;;2.61;100.00;101501.09;4898693;29;20455;-75
2023/01/31 01:52:56;;;;;;;0.00;0.00;;;;;;;2.62;100.00;101491.94;4898897;29;20032;-74
2023/01/31 01:55:25;;;;;;;;;;;;;;;2.64;100.00;101494.44;4893117;29;20096;-75
2023/01/31 01:57:55;;;;;;;0.00;0.00;;;;;;;2.66;100.00;101487.00;4909836;29;19911;-74
2023/01/31 02:00:24;;;;;;;0.00;0.00;;;;;;;2.65;100.00;101481.81;4915698;29;20355;-75
2023/01/31 02:02:54;;;;;;;0.00;0.00;;;;;;;2.60;100.00;101461.59;4907993;29;20051;-74
2023/01/31 02:05:25;;;;;;;0.00;0.00;;;;;;;2.91;100.00;101494.81;4903308;29;20059;-73
2023/01/31 02:07:50;;;;;;;0.00;0.00;;;;;;;2.92;100.00;101473.00;4907213;29;20031;-74
2023/01/31 02:10:28;;;;;;;0.00;0.00;;;;;;;3.12;100.00;101489.44;4910627;29;20028;-73
2023/01/31 02:12:54;;;;;;;0.00;0.00;;;;;;;3.18;100.00;101484.31;4894002;29;20032;-72
2023/01/31 02:15:21;;;;;;;0.00;0.00;;;;;;;3.32;100.00;101491.53;4860708;29;20125;-75
2023/01/31 02:17:46;;;;;;;0.00;0.00;;;;;;;3.37;100.00;101485.53;4900032;29;20032;-74
2023/01/31 02:20:27;;;;;;;0.00;0.00;;;;;;;3.51;100.00;101495.47;4881366;29;20035;-75
2023/01/31 02:22:55;;;;;;;0.00;0.00;;;;;;;3.55;100.00;101506.72;4897641;29;20028;-75
2023/01/31 02:25:36;;;;;;;0.00;0.00;;;;;;;3.54;100.00;101489.66;4906382;29;20024;-74
2023/01/31 02:28:13;;;;;;;0.00;0.00;;;;;;;3.61;100.00;101501.38;4900497;29;20036;-73
2023/01/31 02:30:41;;;;;;;0.00;0.00;;;;;;;3.63;100.00;101496.63;4881822;29;20439;-74
2023/01/31 02:33:22;;;;;;;0.00;0.00;;;;;;;3.61;100.00;101487.88;4896529;29;20032;-74
2023/01/31 02:36:13;;;;;;;0.00;0.00;;;;;;;3.72;100.00;101491.09;4916651;29;20106;-75
2023/01/31 02:38:49;;;;;;;0.00;0.00;;;;;;;3.72;100.00;101491.09;4912469;29;20058;-74
2023/01/31 02:41:37;;;;;;;0.08;0.08;;;;;;;3.71;100.00;101481.28;4888341;29;20107;-75
2023/01/31 02:48:06;;;;;;;0.00;0.00;;;;;;;3.55;100.00;101475.13;4899492;29;20055;-75
2023/01/31 02:50:46;;;;;;;0.00;0.00;;;;;;;3.49;100.00;101463.22;4827716;29;20102;-73
2023/01/31 02:53:50;;;;;;;0.00;0.00;;;;;;;3.53;100.00;101477.16;4907663;29;20505;-75
2023/01/31 02:56:22;;;;;;;0.00;0.00;;;;;;;3.49;100.00;101484.84;4891554;29;20110;-74
2023/01/31 02:58:59;;;;;;;0.00;0.00;;;;;;;3.43;100.00;101473.94;4913957;29;20439;-74
2023/01/31 03:01:31;;;;;;;0.00;0.00;;;;;;;3.38;100.00;101477.25;4929167;29;20062;-75
2023/01/31 03:04:06;;;;;;;0.00;0.00;;;;;;;3.36;100.00;101470.34;4930695;29;20027;-72
2023/01/31 03:06:35;;;;;;;0.00;0.00;;;;;;;3.35;100.00;101463.28;4906461;29;20031;-74
2023/01/31 03:09:09;;;;;;;0.00;0.00;;;;;;;3.28;100.00;101458.63;4915605;29;20119;-75
2023/01/31 03:11:59;;;;;;;;;;;;;;;;;;;;;
2023/01/31 03:14:39;;;;;;;0.00;0.00;;;;;;;3.40;100.00;101460.81;4918306;29;20071;-73
2023/01/31 03:17:43;;;;;;;0.00;0.00;;;;;;;3.52;100.00;101450.31;4912102;29;20075;-75
2023/01/31 03:20:43;;;;;;;0.00;0.00;;;;;;;3.58;100.00;101442.28;4917968;29;20012;-75
2023/01/31 03:23:17;;;;;;;0.00;0.00;;;;;;;3.58;100.00;101438.75;4918685;29;20439;-74
2023/01/31 03:25:44;;;;;;;;;;;;;;;3.66;100.00;101444.84;4922615;29;20031;-74
2023/01/31 03:28:14;;;;;;;0.10;0.10;;;;;;;3.62;100.00;101443.56;4929088;29;19957;-74
2023/01/31 03:30:53;;;;;;;0.00;0.00;;;;;;;3.48;100.00;101437.19;4924494;29;20050;-75
2023/01/31 03:33:24;;;;;;;0.00;0.00;;;;;;;3.45;100.00;101442.16;4918561;28;20085;-75
2023/01/31 03:35:58;;;;;;;0.00;0.00;;;;;;;3.41;100.00;101436.28;4923287;29;20493;-74
2023/01/31 03:38:53;;;;;;;0.00;0.00;;;;;;;3.55;100.00;101437.25;4918081;29;20806;-75
2023/01/31 03:41:29;;;;;;;0.00;0.00;;;;;;;3.58;100.00;101447.69;4916253;29;20088;-75
2023/01/31 03:44:11;;;;;;;0.00;0.00;;;;;;;3.34;100.00;101407.53;4928332;29;20082;-73
2023/01/31 03:46:41;;;;;;;0.00;0.00;;;;;;;3.45;100.00;101415.13;4919374;29;20036;-74
2023/01/31 03:49:11;;;;;;;0.00;0.00;;;;;;;3.44;100.00;101418.84;4895188;29;20363;-73
2023/01/31 03:51:51;;;;;;;0.00;0.00;;;;;;;3.24;100.00;101408.69;4900901;29;20169;-74
2023/01/31 03:54:29;;;;;;;0.00;0.00;;;;;;;3.13;100.00;101415.44;4903949;29;20044;-74
2023/01/31 03:56:59;;;;;;;0.00;0.00;;;;;;;3.01;100.00;101400.75;4883282;29;20519;-74
2023/01/31 03:59:31;;;;;;;0.00;0.00;;;;;;;2.90;100.00;101407.50;4885616;29;20024;-75
2023/01/31 04:02:00;;;;;;;0.00;0.00;;;;;;;2.78;100.00;101409.84;4889876;29;20037;-74
2023/01/31 04:04:57;;;;;;;0.00;0.00;;;;;;;2.71;100.00;101413.50;4883688;29;20028;-74
2023/01/31 04:07:23;;;;;;;0.00;0.00;;;;;;;2.64;100.00;101412.59;4885933;29;20066;-73
2023/01/31 04:09:49;;;;;;;0.00;0.00;;;;;;;2.56;100.00;101403.56;4875916;29;20040;-75
2023/01/31 04:12:14;;;;;;;0.00;0.00;;;;;;;2.51;100.00;101400.63;4875652;29;20084;-74
2023/01/31 04:14:40;;;;;;;0.00;0.00;;;;;;;2.41;100.00;101405.44;4903152;29;20029;-74
2023/01/31 04:17:06;;;;;;;0.00;0.00;;;;;;;2.29;100.00;101396.16;4902417;29;20029;-75
2023/01/31 04:19:31;;;;;;;0.00;0.00;;;;;;;2.33;100.00;101398.28;4892635;29;20621;-74
2023/01/31 04:21:57;;;;;;;0.00;0.00;;;;;;;2.38;100.00;101384.22;4873281;29;20029;-74
2023/01/31 04:24:22;;;;;;;0.00;0.00;;;;;;;2.35;100.00;101380.06;4867012;29;20199;-74
2023/01/31 04:26:47;;;;;;;0.00;0.00;;;;;;;2.34;100.00;101385.66;4887886;29;20032;-74
2023/01/31 04:29:13;;;;;;;0.00;0.00;;;;;;;2.35;100.00;101388.16;4870269;29;20079;-74
2023/01/31 04:31:40;;;;;;;0.00;0.00;;;;;;;2.56;100.00;101398.19;4899128;29;20482;-77
2023/01/31 04:34:05;;;;;;;0.00;0.00;;;;;;;2.72;100.00;101382.78;4887835;29;20040;-77
2023/01/31 04:36:31;;;;;;;0.00;0.00;;;;;;;2.99;100.00;101389.28;4886987;29;20028;-78
2023/01/31 04:38:56;;;;;;;0.00;0.00;;;;;;;3.06;100.00;101368.56;4878981;29;20474;-78
2023/01/31 04:41:22;;;;;;;0.00;0.00;;;;;;;3.18;100.00;101377.00;4868781;29;20450;-77
2023/01/31 04:43:47;;;;;;;0.00;0.00;;;;;;;3.30;100.00;101369.19;4895046;29;20016;-78
2023/01/31 04:46:13;;;;;;;0.00;0.00;;;;;;;3.50;100.00;101363.97;4878770;29;20035;-81
2023/01/31 04:48:40;;;;;;;0.00;0.00;;;;;;;3.72;100.00;101377.44;4881072;29;20376;-77
2023/01/31 04:51:06;;;;;;;0.00;0.00;;;;;;;3.86;100.00;101384.63;4900145;29;20039;-77
2023/01/31 04:53:31;;;;;;;0.00;0.00;;;;;;;3.97;100.00;101392.22;4892133;29;20032;-77
2023/01/31 04:55:57;;;;;;;0.00;0.00;;;;;;;4.00;100.00;101380.97;4882609;29;20019;-76
2023/01/31 04:58:22;;;;;;;0.00;0.00;;;;;;;4.08;100.00;101365.63;4891270;29;20028;-77
2023/01/31 05:00:48;;;;;;;0.08;0.08;;;;;;;4.06;100.00;101370.38;4904480;29;20046;-78
2023/01/31 05:03:13;;;;;;;0.00;0.00;;;;;;;4.08;100.00;101371.03;4917999;29;20035;-77
2023/01/31 05:05:39;;;;;;;0.00;0.00;;;;;;;4.15;100.00;101374.59;4875005;29;20035;-78
2023/01/31 05:08:05;;;;;;;0.00;0.00;;;;;;;4.14;100.00;101370.22;4875189;29;20656;-78
2023/01/31 05:10:31;;;;;;;0.00;0.00;;;;;;;4.09;100.00;101378.94;4895721;29;20029;-78
2023/01/31 05:12:56;;;;;;;0.00;0.00;;;;;;;3.92;100.00;101361.34;4898095;29;20034;-77
2023/01/31 05:15:22;;;;;;;0.00;0.00;;;;;;;3.86;100.00;101372.97;4912721;29;20024;-79
2023/01/31 05:17:52;;;;;;;0.00;0.00;;;;;;;3.82;100.00;101369.81;4882360;29;20032;-78
2023/01/31 05:20:17;;;;;;;0.00;0.00;;;;;;;3.82;100.00;101361.69;4897660;29;20066;-79
2023/01/31 05:22:47;;;;;;;0.00;0.00;;;;;;;3.86;100.00;101373.81;4859695;29;20491;-78
2023/01/31 05:25:12;;;;;;;0.00;0.00;;;;;;;3.77;100.00;101365.00;4890908;29;20051;-78
2023/01/31 05:27:37;;;;;;;0.00;0.00;;;;;;;3.72;100.00;101380.16;4901576;29;20494;-77
2023/01/31 05:30:04;;;;;;;0.00;0.00;;;;;;;3.59;100.00;101365.50;4902557;29;20047;-78
2023/01/31 05:32:29;;;;;;;0.00;0.00;;;;;;;3.54;100.00;101370.66;4860588;29;20028;-73
2023/01/31 05:34:55;;;;;;;0.00;0.00;;;;;;;3.48;100.00;101349.81;4886783;29;20072;-73
2023/01/31 05:37:22;;;;;;;0.00;0.00;;;;;;;3.54;100.00;101362.56;4872081;29;20029;-73
2023/01/31 05:39:48;;;;;;;0.00;0.00;;;;;;;3.62;100.00;101373.22;4908232;29;20123;-73
2023/01/31 05:42:13;;;;;;;0.00;0.00;;;;;;;3.63;100.00;101372.19;4901761;29;20493;-73
2023/01/31 05:44:39;;;;;;;0.00;0.00;;;;;;;3.64;100.00;101364.91;4893909;29;20032;-73
2023/01/31 05:47:04;;;;;;;0.00;0.00;;;;;;;3.63;100.00;101355.94;4904413;29;20032;-74
2023/01/31 05:49:32;;;;;;;0.00;0.00;;;;;;;3.64;100.00;101367.63;4880682;29;20047;-73
2023/01/31 05:51:58;;;;;;;0.00;0.00;;;;;;;3.66;100.00;101369.09;4863645;29;20088;-74
2023/01/31 05:54:24;;;;;;;0.00;0.00;;;;;;;3.75;100.00;101361.69;4897558;29;20078;-74
2023/01/31 05:56:49;;;;;;;0.00;0.00;;;;;;;3.81;100.00;101360.03;4915223;29;20059;-74
2023/01/31 05:59:15;;;;;;;0.00;0.00;;;;;;;3.81;100.00;101354.59;4908513;29;20042;-73
2023/01/31 06:01:40;;;;;;;0.00;0.00;;;;;;;3.86;100.00;101340.50;4909020;29;20028;-73
2023/01/31 06:04:06;;;;;;;0.00;0.00;;;;;;;3.99;100.00;101357.66;4872649;29;20044;-71
2023/01/31 06:06:31;;;;;;;0.00;0.00;;;;;;;4.05;100.00;101338.94;4916710;29;20039;-73
2023/01/31 06:08:56;;;;;;;0.00;0.00;;;;;;;4.01;100.00;101322.25;4911899;29;20051;-75
2023/01/31 06:11:24;;;;;;;0.00;0.00;;;;;;;3.95;100.00;101323.88;4877749;29;20036;-74
2023/01/31 06:13:49;;;;;;;0.00;0.00;;;;;;;3.96;100.00;101328.28;4896378;29;20034;-75
2023/01/31 06:16:16;;;;;;;0.00;0.00;;;;;;;4.07;100.00;101326.03;4920704;29;20489;-73
2023/01/31 06:18:41;;;;;;;0.00;0.00;;;;;;;4.13;100.00;101319.81;4922883;29;20036;-73
2023/01/31 06:21:07;;;;;;;0.00;0.00;;;;;;;4.19;100.00;101308.16;4927569;29;20024;-73
2023/01/31 06:23:35;;;;;;;0.00;0.00;;;;;;;4.24;100.00;101315.72;4923340;29;20023;-74
2023/01/31 06:26:00;;;;;;;0.00;0.00;;;;;;;4.27;100.00;101305.31;4920566;29;20032;-73
2023/01/31 06:28:26;;;;;;;0.00;0.00;;;;;;;4.21;100.00;101306.13;4906002;29;20020;-74
2023/01/31 06:30:51;;;;;;;0.00;0.00;;;;;;;4.09;100.00;101313.13;4903807;29;20419;-76
2023/01/31 06:33:17;;;;;;;0.00;0.00;;;;;;;3.97;100.00;101315.56;4903716;29;20032;-74
2023/01/31 06:35:43;;;;;;;0.00;0.00;;;;;;;3.86;100.00;101311.56;4893603;29;20107;-73
2023/01/31 06:38:11;;;;;;;0.00;0.00;;;;;;;3.81;100.00;101305.91;4903668;29;20039;-74
2023/01/31 06:40:36;;;;;;;0.00;0.00;;;;;;;3.95;100.00;101320.38;4899594;29;20035;-73
2023/01/31 06:43:02;;;;;;;0.00;0.00;;;;;;;4.05;100.00;101326.25;4903952;29;20035;-74
2023/01/31 06:45:27;;;;;;;0.00;0.00;;;;;;;4.16;100.00;101331.09;4914117;29;20039;-74
2023/01/31 06:47:53;;;;;;;0.00;0.00;;;;;;;4.30;100.00;101341.97;4893998;29;20528;-73
2023/01/31 06:50:18;;;;;;;0.00;0.00;;;;;;;4.34;100.00;101332.41;4886410;29;20046;-75
2023/01/31 06:52:44;;;;;;;0.00;0.00;;;;;;;4.31;100.00;101322.81;4912176;29;20036;-73
2023/01/31 06:55:10;;;;;;;0.00;0.00;;;;;;;4.33;100.00;101338.84;4909870;29;20056;-74
2023/01/31 06:57:36;;;;;;;0.00;0.00;;;;;;;4.27;100.00;101332.38;4895625;29;20067;-73
2023/01/31 07:00:02;;;;;;;0.00;0.00;;;;;;;4.31;100.00;101333.66;4876877;29;20774;-74
2023/01/31 07:02:28;;;;;;;0.00;0.00;;;;;;;4.36;100.00;101339.28;4889694;29;20132;-74
2023/01/31 07:04:54;;;;;;;0.00;0.00;;;;;;;4.34;100.00;101338.66;4889807;29;20115;-73
2023/01/31 07:07:19;;;;;;;0.00;0.00;;;;;;;4.33;100.00;101331.56;4864897;29;20390;-74
2023/01/31 07:09:45;;;;;;;0.00;0.00;;;;;;;4.25;100.00;101328.19;4874346;29;20042;-74
2023/01/31 07:12:13;;;;;;;0.00;0.00;;;;;;;4.18;100.00;101318.19;4905026;29;20039;-78
2023/01/31 07:14:41;;;;;;;0.00;0.00;;;;;;;4.13;100.00;101317.09;4897744;29;20031;-78
2023/01/31 07:17:07;;;;;;;0.00;0.00;;;;;;;4.13;100.00;101308.97;4899009;29;20052;-79
2023/01/31 07:19:32;;;;;;;0.00;0.00;;;;;;;4.28;100.00;101317.81;4880354;29;20063;-79
2023/01/31 07:22:00;;;;;;;0.00;0.00;;;;;;;4.37;100.00;101316.59;4891224;29;20025;-77
2023/01/31 07:24:28;;;;;;;0.00;0.00;;;;;;;4.57;100.00;101315.81;4865803;29;20066;-77
2023/01/31 07:26:54;;;;;;;0.00;0.00;;;;;;;4.71;100.00;101316.69;4880305;29;20035;-80
2023/01/31 07:29:45;;;;;;;0.00;0.00;;;;;;;4.82;100.00;101305.25;4909872;29;20046;-79
2023/01/31 07:32:14;;;;;;;0.00;0.00;;;;;;;5.03;100.00;101320.47;4889597;29;20044;-80
2023/01/31 07:34:50;;;;;;;;;;;;;;;;;;;;;
2023/01/31 07:37:42;;;;;;;0.00;0.00;;;;;;;5.24;100.00;101305.03;4907106;29;20112;-78
2023/01/31 07:40:21;;;;;;;0.00;0.00;;;;;;;5.43;100.00;101314.22;4905296;29;20025;-79
2023/01/31 07:42:56;;;;;;;0.00;0.00;;;;;;;5.58;100.00;101322.16;4915616;29;20505;-78
2023/01/31 07:45:30;;;;;;;;;;;;;;;5.61;100.00;101321.72;4898578;29;20142;-77
2023/01/31 07:47:59;;;;;;;0.00;0.00;;;;;;;5.64;100.00;101305.03;4908126;29;19943;-78
2023/01/31 07:50:35;;;;;;;0.00;0.00;;;;;;;5.59;100.00;101299.38;4883952;29;20063;-80
2023/01/31 07:53:01;;;;;;;0.00;0.00;;;;;;;5.61;100.00;101283.72;4872361;29;20039;-77
2023/01/31 07:55:26;;;;;;;0.00;0.00;;;;;;;5.83;100.00;101318.75;4903880;29;20040;-79
2023/01/31 07:57:52;;;;;;;0.00;0.00;;;;;;;5.85;100.00;101312.06;4891797;29;21732;-79
2023/01/31 08:03:32;;;;;;;0.00;0.00;;;;;;;6.10;100.00;101342.13;4878614;29;20926;-79
2023/01/31 08:06:08;;;;;;;0.00;0.00;;;;;;;6.16;100.00;101345.81;4907966;29;20036;-79
2023/01/31 08:08:35;;;;;;;0.00;0.00;;;;;;;6.13;100.00;101319.09;4911568;29;20020;-81
2023/01/31 08:11:03;;;;;;;0.00;0.00;;;;;;;6.25;100.00;101339.13;4908622;29;20108;-79
2023/01/31 08:13:30;;;;;;;0.00;0.00;;;;;;;6.28;100.00;101314.25;4906472;29;20086;-79
2023/01/31 08:19:26;;;;;;;0.00;0.00;;;;;;;6.19;100.00;101301.13;4853733;29;20464;-80
2023/01/31 08:21:51;;;;;;;0.00;0.00;;;;;;;6.01;100.00;101291.78;4887982;29;20048;-79
2023/01/31 08:24:30;;;;;;;0.00;0.00;;;;;;;6.13;100.00;101301.97;4908690;29;20032;-81
2023/01/31 08:26:56;;;;;;;0.00;0.00;;;;;;;6.26;100.00;101301.91;4908248;29;20036;-80
2023/01/31 08:29:24;;;;;;;0.00;0.00;;;;;;;6.10;100.00;101260.66;4910426;29;20020;-80
2023/01/31 08:32:03;;;;;;;;;;;;;;;;;;;;;
2023/01/31 08:34:29;;;;;;;0.00;0.00;;;;;;;6.23;100.00;101292.31;4914025;29;20012;-82
2023/01/31 08:40:10;;;;;;;0.00;0.00;;;;;;;5.95;100.00;101268.19;4903645;29;20059;-80
2023/01/31 08:42:40;;;;;;;0.00;0.00;;;;;;;5.93;100.00;101276.53;4899180;29;20450;-80
2023/01/31 08:45:06;;;;;;;0.00;0.00;;;;;;;5.97;100.00;101279.69;4907038;29;20028;-79
2023/01/31 08:47:36;;;;;;;0.00;0.00;;;;;;;5.99;100.00;101285.75;4907189;29;20482;-80
2023/01/31 08:50:02;;;;;;;0.00;0.00;;;;;;;5.98;100.00;101292.22;4909193;29;20079;-79
2023/01/31 08:52:27;;;;;;;0.00;0.00;;;;;;;6.09;100.00;101291.56;4914197;29;20052;-79
2023/01/31 08:54:53;;;;;;;0.00;0.00;;;;;;;6.17;100.00;101271.47;4929731;29;20052;-81
2023/01/31 08:57:20;;;;;;;0.00;0.00;;;;;;;6.42;100.00;101271.53;4917630;29;20031;-82
2023/01/31 08:59:46;;;;;;;0.00;0.00;;;;;;;6.62;100.00;101251.56;4884732;29;20391;-82
2023/01/31 09:02:14;;;;;;;0.00;0.00;;;;;;;6.94;100.00;101276.84;4912749;29;20021;-80
2023/01/31 09:05:10;;;;;;;0.00;0.00;;;;;;;6.86;100.00;101252.63;4916460;29;20039;-81
2023/01/31 09:07:35;;;;;;;0.00;0.00;;;;;;;6.93;100.00;101252.59;4929175;29;20027;-81
2023/01/31 09:10:01;;;;;;;0.00;0.00;;;;;;;7.10;100.00;101285.53;4913300;29;20079;-81
2023/01/31 09:12:26;;;;;;;0.00;0.00;;;;;;;7.15;100.00;101275.66;4918905;29;20023;-83
2023/01/31 09:14:54;;;;;;;0.00;0.00;;;;;;;7.29;100.00;101294.56;4889961;29;20850;-83
2023/01/31 09:17:19;;;;;;;0.00;0.00;;;;;;;7.50;100.00;101291.44;4908291;29;20027;-83
2023/01/31 09:19:55;;;;;;;0.00;0.00;;;;;;;7.64;100.00;101294.03;4895824;29;20033;-83
2023/01/31 09:22:38;;;;;;;0.00;0.00;;;;;;;7.65;100.00;101271.19;4914125;29;20025;-84
2023/01/31 09:25:14;;;;;;;0.00;0.00;;;;;;;7.88;100.00;101273.22;4909375;29;20036;-80
2023/01/31 09:27:41;;;;;;;0.00;0.00;;;;;;;8.34;100.00;101295.53;4904014;29;20119;-80
2023/01/31 09:30:09;;;;;;;0.00;0.00;;;;;;;8.72;100.00;101302.59;4898495;29;20483;-80
2023/01/31 09:32:37;;;;;;;0.00;0.00;;;;;;;8.88;99.38;101306.53;4910797;29;20715;-81
2023/01/31 09:35:20;;;;;;;0.00;0.00;;;;;;;8.84;98.38;101294.44;4915517;29;20063;-81
2023/01/31 09:37:45;;;;;;;0.00;0.00;;;;;;;8.89;98.84;101311.75;4914357;29;20091;-85
2023/01/31 09:40:21;;;;;;;0.00;0.00;;;;;;;8.72;98.59;101297.94;4887698;29;20036;-83
2023/01/31 09:42:48;;;;;;;0.00;0.00;;;;;;;8.61;100.00;101292.47;4929661;29;20545;-84
2023/01/31 09:45:33;;;;;;;0.00;0.00;;;;;;;8.68;100.00;101301.38;4903957;29;20075;-83
2023/01/31 09:48:16;;;;;;;;;;;;;;;8.86;100.00;101323.16;4915525;29;20023;-84
2023/01/31 09:50:58;;;;;;;0.03;0.03;;;;;;;8.79;100.00;101306.03;4917602;29;19943;-84
2023/01/31 09:53:33;;;;;;;0.00;0.00;;;;;;;8.82;100.00;101316.50;4912324;28;20021;-84
2023/01/31 09:56:18;;;;;;;;;;;;;;;;;;;;;
2023/01/31 09:59:33;;;;;;;0.00;0.00;;;;;;;8.90;100.00;101310.69;4907434;29;20724;-82
2023/01/31 10:20:09;;;;;;;0.00;0.00;;;;;;;8.62;100.00;101324.94;4848709;29;20036;-85
2023/01/31 10:22:55;;;;;;;0.00;0.00;;;;;;;9.01;100.00;101355.44;4802635;29;20045;-83
2023/01/31 10:25:23;;;;;;;0.00;0.00;;;;;;;9.12;100.00;101356.53;4788525;29;20034;-83
2023/01/31 10:27:55;;;;;;;0.00;0.00;;;;;;;9.07;100.00;101318.22;4832815;29;20162;-82
2023/01/31 10:30:47;;;;;;;0.00;0.00;;;;;;;9.39;100.00;101331.56;4827506;29;20037;-84
2023/01/31 10:34:03;;;;;;;0.00;0.00;;;;;;;9.95;100.00;101345.66;4864207;29;20043;-83
2023/01/31 10:36:35;;;;;;;0.00;0.00;;;;;;;10.11;99.63;101338.63;4896908;29;20039;-83
2023/01/31 10:39:28;;;;;;;;;;;;;;;;;;;;;
2023/01/31 10:42:08;;;;;;;0.00;0.00;;;;;;;9.56;98.43;101307.94;4904467;29;20039;-82
2023/01/31 10:45:16;;;;;;;0.00;0.00;;;;;;;9.39;99.57;101312.44;4903638;29;20038;-82
2023/01/31 10:47:48;;;;;;;0.00;0.00;;;;;;;9.60;100.00;101343.78;4893553;29;20185;-83
2023/01/31 10:50:26;;;;;;;0.00;0.00;;;;;;;9.46;100.00;101313.13;4898814;29;20111;-83
2023/01/31 10:53:23;;;;;;;;;;;;;;;;;;;;;
2023/01/31 10:56:35;;;;;;;0.00;0.00;;;;;;;9.55;100.00;101332.72;4901361;29;20035;-83
2023/01/31 10:59:18;;;;;;;0.00;0.00;;;;;;;9.53;100.00;101335.69;4923570;29;20534;-82
2023/01/31 11:01:46;;;;;;;0.00;0.00;;;;;;;9.61;100.00;101327.16;4904437;29;20048;-81
2023/01/31 11:04:46;;;;;;;0.00;0.00;;;;;;;9.63;100.00;101323.38;4887614;29;20036;-81
2023/01/31 11:07:20;;;;;;;0.00;0.00;;;;;;;9.55;100.00;101303.53;4895510;29;20157;-83
2023/01/31 11:09:55;;;;;;;0.00;0.00;;;;;;;9.92;100.00;101338.78;4898005;29;20475;-83
2023/01/31 11:13:00;;;;;;;0.00;0.00;;;;;;;10.10;98.98;101324.16;4889049;29;20068;-83
2023/01/31 11:16:00;;;;;;;;;;;;;;;;;;;;;
2023/01/31 11:18:45;;;;;;;0.00;0.00;;;;;;;10.35;95.39;101314.00;4919827;29;20108;-84
2023/01/31 11:21:20;;;;;;;0.00;0.00;;;;;;;10.53;93.77;101338.44;4921018;29;20078;-83
2023/01/31 11:24:23;;;;;;;0.00;0.00;;;;;;;10.81;93.80;101328.56;4890554;29;20060;-84
2023/01/31 11:26:57;;;;;;;0.00;0.00;;;;;;;11.25;90.57;101317.84;4908370;29;20044;-84
2023/01/31 11:29:57;;;;;;;0.00;0.00;;;;;;;13.39;84.43;101321.81;4893882;29;20032;-83
2023/01/31 11:32:43;;;;;;;0.00;0.00;;;;;;;15.56;73.09;101334.38;4887443;29;20100;-82
2023/01/31 11:35:30;;;;;;;0.00;0.00;;;;;;;15.95;69.50;101342.06;4903265;29;20023;-84
2023/01/31 11:38:16;;;;;;;;;;;;;;;;;;;;;
2023/01/31 11:48:03;;;;;;;0.00;0.00;;;;;;;12.50;79.51;101337.66;4871301;29;20064;-83
2023/01/31 11:50:43;;;;;;;0.00;0.00;;;;;;;12.05;80.73;101321.22;4901699;29;20047;-83
2023/01/31 11:53:20;;;;;;;0.00;0.00;;;;;;;11.41;81.95;101309.88;4910523;29;20028;-84
2023/01/31 11:55:58;;;;;;;0.00;0.00;;;;;;;11.06;83.49;101297.25;4898065;29;20044;-84
2023/01/31 11:58:36;;;;;;;0.00;0.00;;;;;;;10.80;86.24;101285.84;4892734;29;20024;-84
2023/01/31 12:01:19;;;;;;;;;;;;;;;;;;;;;
2023/01/31 12:04:00;;;;;;;0.00;0.00;;;;;;;10.89;86.19;101308.19;4901411;29;20032;-83
2023/01/31 12:06:47;;;;;;;0.00;0.00;;;;;;;11.25;83.89;101282.25;4900886;29;20032;-83
2023/01/31 12:09:22;;;;;;;0.00;0.00;;;;;;;11.82;80.85;101294.03;4902394;29;20031;-83
2023/01/31 12:12:01;;;;;;;0.00;0.00;;;;;;;12.93;79.01;101287.34;4914784;29;20040;-84
2023/01/31 12:14:40;;;;;;;0.00;0.00;;;;;;;14.56;71.01;101311.69;4914261;29;20032;-83
2023/01/31 12:17:19;;;;;;;0.00;0.00;;;;;;;15.14;64.66;101279.31;4911366;29;20093;-83
2023/01/31 12:20:09;;;;;;;0.00;0.00;;;;;;;15.04;66.18;101295.00;4916259;29;20052;-84
2023/01/31 12:22:53;;;;;;;0.00;0.00;;;;;;;14.58;66.88;101299.31;4907852;29;20028;-85
2023/01/31 12:25:59;;;;;;;0.00;0.00;;;;;;;15.08;64.91;101310.69;4914098;29;20543;-86
2023/01/31 12:32:22;;;;;;;0.00;0.00;;;;;;;14.71;63.63;101309.00;4894825;29;20067;-85
2023/01/31 12:38:13;;;;;;;0.00;0.00;;;;;;;12.73;69.12;101288.00;4910439;29;20047;-83
2023/01/31 12:41:01;;;;;;;0.00;0.00;;;;;;;13.13;69.46;101288.63;4908193;29;20020;-85
2023/01/31 12:44:00;;;;;;;0.00;0.00;;;;;;;14.90;62.76;101290.03;4913011;29;20017;-85
2023/01/31 12:46:58;;;;;;;0.00;0.00;;;;;;;16.67;57.97;101316.91;4919601;29;20115;-85
2023/01/31 12:49:45;;;;;;;0.00;0.00;;;;;;;16.44;55.38;101301.84;4904770;29;20060;-85